Time;durP1;ratioP1;P1;durP2;ratioP2;P2;SDS_P1;SDS_P2;PMS_P1;PMS_P2;Temp;Humidity;BMP_temperature;BMP_pressure;BME280_temperature;BME280_humidity;BME280_pressure;Samples;Min_cycle;Max_cycle;Signal;HPM_P1;HPM_P2
2022/01/06 00:00:13;;;;;;;6.13;1.80;;;;;;;3.98;100.00;101162.28;4934681;29;20059;-88
2022/01/06 00:02:40;;;;;;;12.20;2.50;;;;;;;4.01;100.00;101149.34;4919565;29;20425;-88
2022/01/06 00:05:08;;;;;;;9.73;2.20;;;;;;;4.26;100.00;101160.44;4916058;29;20047;-88
2022/01/06 00:07:35;;;;;;;10.25;2.13;;;;;;;4.04;100.00;101157.09;4935301;29;20074;-88
2022/01/06 00:10:05;;;;;;;9.43;2.20;;;;;;;3.94;100.00;101152.81;4901892;29;20064;-87
2022/01/06 00:12:40;;;;;;;7.28;2.13;;;;;;;4.01;100.00;101154.53;4917531;29;20443;-88
2022/01/06 00:25:50;;;;;;;12.63;2.58;;;;;;;4.14;100.00;101129.41;4936208;29;20063;-87
2022/01/06 00:28:18;;;;;;;4.30;1.60;;;;;;;4.23;100.00;101134.53;4918489;29;20478;-87
2022/01/06 00:30:45;;;;;;;13.00;3.20;;;;;;;4.03;100.00;101132.03;4918911;29;20044;-87
2022/01/06 00:33:13;;;;;;;7.47;2.03;;;;;;;4.19;100.00;101112.97;4918885;29;20052;-87
2022/01/06 00:35:40;;;;;;;10.15;2.60;;;;;;;4.26;100.00;101115.53;4934588;29;20052;-87
2022/01/06 00:38:07;;;;;;;6.82;1.98;;;;;;;4.09;100.00;101082.81;4918649;29;20437;-87
2022/01/06 00:40:35;;;;;;;7.70;1.88;;;;;;;4.32;100.00;101095.63;4918535;29;20054;-87
2022/01/06 00:43:04;;;;;;;4.78;1.77;;;;;;;4.43;100.00;101090.38;4934693;29;20055;-88
2022/01/06 00:45:32;;;;;;;5.13;2.30;;;;;;;4.37;100.00;101103.34;4918960;29;20052;-87
2022/01/06 00:47:59;;;;;;;9.52;2.00;;;;;;;4.31;100.00;101078.34;4934186;29;20056;-87
2022/01/06 00:50:26;;;;;;;8.70;2.55;;;;;;;4.65;100.00;101092.81;4918336;29;20302;-87
2022/01/06 00:52:53;;;;;;;8.07;1.80;;;;;;;4.43;100.00;101085.19;4935226;29;20131;-88
2022/01/06 00:55:20;;;;;;;5.63;2.05;;;;;;;4.46;100.00;101090.34;4933858;29;20058;-88
2022/01/06 00:57:47;;;;;;;8.15;1.80;;;;;;;4.42;100.00;101078.25;4934326;29;20788;-88
2022/01/06 01:00:14;;;;;;;7.15;1.90;;;;;;;4.48;100.00;101073.06;4904267;29;20062;-88
2022/01/06 01:02:40;;;;;;;9.25;2.22;;;;;;;4.45;100.00;101060.09;4934192;29;20067;-88
2022/01/06 01:05:08;;;;;;;9.02;2.22;;;;;;;4.32;100.00;101048.97;4918170;29;20105;-88
2022/01/06 01:07:35;;;;;;;4.05;1.50;;;;;;;4.29;100.00;101040.34;4918325;29;20047;-88
2022/01/06 01:10:03;;;;;;;2.55;1.20;;;;;;;4.37;100.00;101034.25;4932575;29;20044;-87
2022/01/06 01:12:30;;;;;;;3.95;1.48;;;;;;;4.41;100.00;101045.44;4934991;29;20070;-88
2022/01/06 01:15:04;;;;;;;8.73;2.53;;;;;;;4.46;100.00;101040.22;4935002;29;20409;-88
2022/01/06 01:17:31;;;;;;;7.95;1.75;;;;;;;4.27;100.00;101016.19;4934130;29;20055;-88
2022/01/06 01:19:59;;;;;;;5.53;1.70;;;;;;;4.52;100.00;101025.47;4915983;29;20058;-88
2022/01/06 01:22:25;;;;;;;5.00;1.40;;;;;;;4.30;100.00;101026.50;4933770;29;20421;-88
2022/01/06 01:24:52;;;;;;;4.50;1.60;;;;;;;4.21;100.00;101018.78;4934281;29;20141;-87
2022/01/06 01:27:22;;;;;;;10.05;2.08;;;;;;;4.34;100.00;101023.88;4917774;29;20138;-88
2022/01/06 01:30:03;;;;;;;8.32;2.03;;;;;;;4.14;100.00;101000.72;4917358;29;20055;-87
2022/01/06 01:32:35;;;;;;;7.18;1.85;;;;;;;4.34;100.00;101023.88;4918214;29;20044;-88
2022/01/06 01:35:04;;;;;;;4.15;1.50;;;;;;;4.17;100.00;101008.44;4916413;29;20056;-87
2022/01/06 01:37:31;;;;;;;5.90;1.67;;;;;;;4.27;100.00;101018.78;4933083;29;20048;-88
2022/01/06 01:39:59;;;;;;;3.72;1.25;;;;;;;4.25;100.00;101004.94;4931233;29;20509;-88
2022/01/06 01:42:27;;;;;;;6.07;1.50;;;;;;;4.25;100.00;101013.59;4933544;29;20497;-88
2022/01/06 01:44:54;;;;;;;6.78;1.85;;;;;;;4.02;100.00;100997.31;4917758;29;20063;-87
2022/01/06 01:47:37;;;;;;;5.50;1.67;;;;;;;4.06;100.00;100983.50;4933434;29;20055;-88
2022/01/06 01:50:16;;;;;;;8.73;2.33;;;;;;;3.80;100.00;100994.84;4931065;29;20425;-87
2022/01/06 01:52:44;;;;;;;7.40;1.50;;;;;;;3.94;100.00;101013.78;4933487;29;20131;-87
2022/01/06 01:55:15;;;;;;;10.82;1.98;;;;;;;3.81;100.00;100983.63;4933397;29;20055;-87
2022/01/06 01:57:42;;;;;;;7.43;1.85;;;;;;;3.89;100.00;100999.97;4933317;29;20051;-88
2022/01/06 02:00:12;;;;;;;5.43;1.63;;;;;;;3.96;100.00;100991.28;4914475;29;20051;-88
2022/01/06 02:02:39;;;;;;;6.45;1.85;;;;;;;3.78;100.00;100997.44;4930235;29;21066;-88
2022/01/06 02:05:07;;;;;;;5.05;1.88;;;;;;;3.79;100.00;100986.22;4909159;29;20058;-88
2022/01/06 02:07:36;;;;;;;5.35;1.40;;;;;;;3.75;100.00;100973.28;4917422;29;20058;-87
2022/01/06 02:10:04;;;;;;;9.15;2.15;;;;;;;3.50;100.00;100980.34;4916701;29;20090;-89
2022/01/06 02:12:36;;;;;;;5.15;1.50;;;;;;;3.77;100.00;100989.69;4933068;29;20044;-88
2022/01/06 02:15:07;;;;;;;5.90;1.70;;;;;;;3.56;100.00;100968.22;4917411;29;20048;-88
2022/01/06 02:17:36;;;;;;;6.60;1.73;;;;;;;3.53;100.00;100960.47;4917370;29;20055;-88
2022/01/06 02:20:06;;;;;;;6.32;1.67;;;;;;;3.65;100.00;100951.78;4902226;29;20058;-89
2022/01/06 02:22:33;;;;;;;10.43;1.95;;;;;;;3.44;100.00;100957.09;4915030;29;20502;-87
2022/01/06 02:25:30;;;;;;;5.43;1.40;;;;;;;3.51;100.00;100969.13;4932497;29;20443;-88
2022/01/06 02:28:00;;;;;;;7.15;1.67;;;;;;;3.34;100.00;100956.25;4925867;29;20413;-87
2022/01/06 02:30:27;;;;;;;4.00;1.40;;;;;;;3.19;100.00;100962.34;4918908;29;20079;-88
2022/01/06 02:32:55;;;;;;;6.63;1.80;;;;;;;3.18;100.00;100958.03;4910236;29;20047;-88
2022/01/06 02:35:24;;;;;;;4.65;1.58;;;;;;;3.18;100.00;100956.28;4937112;29;20063;-88
2022/01/06 02:37:50;;;;;;;2.85;1.35;;;;;;;3.02;100.00;100946.88;4920953;29;20509;-88
2022/01/06 02:40:20;;;;;;;6.43;1.58;;;;;;;2.95;100.00;100938.25;4920336;29;20058;-88
2022/01/06 02:43:07;;;;;;;4.82;1.67;;;;;;;2.93;100.00;100937.41;4936462;29;20059;-87
2022/01/06 02:45:35;;;;;;;4.13;1.48;;;;;;;2.92;100.00;100943.47;4936049;29;20702;-88
2022/01/06 02:48:08;;;;;;;4.43;1.60;;;;;;;2.92;100.00;100945.16;4934981;29;20059;-87
2022/01/06 02:50:41;;;;;;;3.88;1.45;;;;;;;2.87;100.00;100939.16;4911511;29;20059;-88
2022/01/06 02:53:09;;;;;;;3.87;1.43;;;;;;;2.50;100.00;100898.75;4936871;29;20611;-87
2022/01/06 02:55:40;;;;;;;4.82;1.50;;;;;;;2.45;100.00;100905.63;4936872;29;20505;-86
2022/01/06 02:58:08;;;;;;;6.33;1.77;;;;;;;2.47;100.00;100912.50;4917483;29;20058;-86
2022/01/06 03:00:35;;;;;;;8.93;2.00;;;;;;;2.37;100.00;100897.03;4904141;29;20471;-86
2022/01/06 03:03:02;;;;;;;6.53;1.60;;;;;;;1.85;100.00;100813.53;4935406;29;20490;-87
2022/01/06 03:05:29;;;;;;;3.67;1.35;;;;;;;2.31;100.00;100892.72;4942159;29;20055;-87
2022/01/06 03:07:56;;;;;;;7.70;1.70;;;;;;;2.27;100.00;100891.88;4910479;29;20402;-87
2022/01/06 03:10:23;;;;;;;6.53;1.60;;;;;;;2.30;100.00;100897.91;4918317;29;20051;-88
2022/01/06 03:12:50;;;;;;;6.60;1.58;;;;;;;2.28;100.00;100885.84;4921080;29;20074;-88
2022/01/06 03:15:20;;;;;;;4.63;1.50;;;;;;;2.29;100.00;100899.63;4920039;29;20490;-88
2022/01/06 03:17:50;;;;;;;6.90;1.92;;;;;;;2.15;100.00;100888.44;4937113;29;20066;-88
2022/01/06 03:20:18;;;;;;;5.07;1.77;;;;;;;2.24;100.00;100888.44;4933855;29;20051;-87
2022/01/06 03:22:45;;;;;;;4.47;1.40;;;;;;;2.16;100.00;100869.47;4935613;29;20058;-88
2022/01/06 03:25:13;;;;;;;3.90;1.60;;;;;;;2.09;100.00;100863.47;4935799;29;20055;-87
2022/01/06 03:27:41;;;;;;;4.47;1.60;;;;;;;2.09;100.00;100879.84;4935715;29;20062;-88
2022/01/06 03:30:10;;;;;;;8.27;1.40;;;;;;;2.19;100.00;100872.06;4935295;29;20074;-87
2022/01/06 03:32:38;;;;;;;3.03;1.48;;;;;;;2.38;100.00;100880.66;4934843;29;20043;-87
2022/01/06 03:35:06;;;;;;;3.40;1.50;;;;;;;2.00;100.00;100871.22;4936611;29;20055;-88
2022/01/06 03:37:33;;;;;;;4.18;1.50;;;;;;;2.00;100.00;100876.38;4919640;29;20058;-88
2022/01/06 03:40:04;;;;;;;4.55;1.50;;;;;;;2.13;100.00;100862.59;4906701;29;20048;-88
2022/01/06 03:42:32;;;;;;;6.75;1.45;;;;;;;2.02;100.00;100865.19;4916722;29;20131;-88
2022/01/06 03:45:00;;;;;;;4.38;1.50;;;;;;;1.98;100.00;100849.69;4917441;29;20058;-87
2022/01/06 03:47:26;;;;;;;6.47;1.60;;;;;;;1.53;100.00;100790.31;4920229;29;20059;-87
2022/01/06 03:49:53;;;;;;;2.55;1.30;;;;;;;1.83;100.00;100832.50;4920701;29;20048;-87
2022/01/06 03:52:20;;;;;;;6.88;1.30;;;;;;;1.81;100.00;100831.63;4916831;29;20075;-88
2022/01/06 03:54:47;;;;;;;4.22;1.38;;;;;;;1.76;100.00;100847.13;4915158;29;20062;-87
2022/01/06 03:57:14;;;;;;;5.82;1.40;;;;;;;1.67;100.00;100832.47;4919908;29;20402;-86
2022/01/06 03:59:41;;;;;;;5.05;1.50;;;;;;;1.41;100.00;100786.00;4916755;29;20052;-87
2022/01/06 04:02:08;;;;;;;7.10;1.65;;;;;;;1.54;100.00;100791.19;4925565;29;20126;-86
2022/01/06 04:04:35;;;;;;;3.67;1.60;;;;;;;1.48;100.00;100779.13;4945703;29;20051;-87
2022/01/06 04:07:02;;;;;;;3.75;1.40;;;;;;;1.31;100.00;100753.31;4918878;29;20103;-87
2022/01/06 04:09:29;;;;;;;4.50;1.60;;;;;;;1.52;100.00;100781.72;4934164;29;20453;-88
2022/01/06 04:11:56;;;;;;;3.83;1.40;;;;;;;1.56;100.00;100780.00;4919011;29;20138;-88
2022/01/06 04:14:23;;;;;;;3.55;1.50;;;;;;;1.60;100.00;100791.19;4915122;29;20056;-88
2022/01/06 04:16:57;;;;;;;4.43;1.75;;;;;;;1.49;100.00;100780.88;4931107;29;20051;-87
2022/01/06 04:19:24;;;;;;;6.22;1.50;;;;;;;1.37;100.00;100758.50;4942296;29;20055;-88
2022/01/06 04:21:51;;;;;;;3.10;1.30;;;;;;;1.51;100.00;100766.25;4919195;29;20047;-87
2022/01/06 04:24:18;;;;;;;6.45;1.88;;;;;;;1.48;100.00;100771.41;4936139;29;20486;-88
2022/01/06 04:26:45;;;;;;;5.80;2.20;;;;;;;1.71;100.00;100763.66;4918967;29;20060;-89
2022/01/06 04:29:12;;;;;;;2.63;1.30;;;;;;;1.42;100.00;100766.25;4917819;29;20482;-88
2022/01/06 04:31:39;;;;;;;3.50;1.45;;;;;;;1.42;100.00;100750.78;4937782;29;20064;-88
2022/01/06 04:34:06;;;;;;;5.70;1.40;;;;;;;1.77;100.00;100760.19;4919582;29;20760;-89
2022/01/06 04:36:33;;;;;;;6.20;1.50;;;;;;;1.54;100.00;100749.88;4935282;29;20059;-87
2022/01/06 04:38:59;;;;;;;3.65;1.50;;;;;;;1.60;100.00;100753.34;4928809;29;20558;-88
2022/01/06 04:41:26;;;;;;;5.15;2.60;;;;;;;1.56;100.00;100743.88;4916073;29;20055;-87
2022/01/06 04:43:53;;;;;;;3.40;1.58;;;;;;;1.58;100.00;100752.47;4931296;29;20060;-88
2022/01/06 04:46:20;;;;;;;6.40;1.50;;;;;;;1.52;100.00;100744.72;4934209;29;21907;-86
2022/01/06 04:48:47;;;;;;;4.28;1.50;;;;;;;1.66;100.00;100731.81;4933644;29;20525;-88
2022/01/06 04:51:14;;;;;;;6.63;1.52;;;;;;;1.47;100.00;100725.78;4934243;29;20478;-88
2022/01/06 04:53:41;;;;;;;7.60;1.92;;;;;;;1.51;100.00;100710.31;4934258;29;20058;-88
2022/01/06 04:56:08;;;;;;;7.70;1.73;;;;;;;1.63;100.00;100724.06;4935450;29;20044;-84
2022/01/06 04:58:36;;;;;;;6.68;1.65;;;;;;;1.56;100.00;100705.16;4916986;29;20044;-86
2022/01/06 05:01:02;;;;;;;6.18;1.70;;;;;;;1.39;100.00;100694.84;4918285;29;20052;-86
2022/01/06 05:03:29;;;;;;;4.45;1.60;;;;;;;1.41;100.00;100685.38;4899577;29;20503;-86
2022/01/06 05:05:56;;;;;;;6.75;1.67;;;;;;;1.55;100.00;100676.78;4925825;29;20063;-86
2022/01/06 05:08:23;;;;;;;6.35;1.88;;;;;;;1.58;100.00;100669.91;4914229;29;20071;-86
2022/01/06 05:10:50;;;;;;;6.28;1.52;;;;;;;1.62;100.00;100653.53;4899945;29;20453;-87
2022/01/06 05:13:17;;;;;;;6.85;1.88;;;;;;;1.66;100.00;100649.22;4925816;29;20631;-86
2022/01/06 05:15:43;;;;;;;6.40;1.98;;;;;;;1.71;100.00;100650.06;4918601;29;20062;-86
2022/01/06 05:18:10;;;;;;;8.50;2.00;;;;;;;1.74;100.00;100639.75;4934817;29;20051;-85
2022/01/06 05:20:38;;;;;;;6.82;2.05;;;;;;;2.01;100.00;100648.25;4918847;29;20043;-86
2022/01/06 05:23:05;;;;;;;6.80;2.42;;;;;;;1.97;100.00;100631.06;4918426;29;20050;-86
2022/01/06 05:25:32;;;;;;;7.70;2.08;;;;;;;1.95;100.00;100615.56;4933674;29;20078;-85
2022/01/06 05:27:59;;;;;;;7.35;1.88;;;;;;;1.93;100.00;100611.28;4917702;29;20406;-85
2022/01/06 05:30:26;;;;;;;4.85;1.60;;;;;;;2.08;100.00;100619.81;4932738;29;20573;-86
2022/01/06 05:32:53;;;;;;;8.35;1.83;;;;;;;2.05;100.00;100588.84;4928523;29;20126;-86
2022/01/06 05:35:20;;;;;;;7.82;1.83;;;;;;;2.29;100.00;100602.50;4933170;29;20062;-86
2022/01/06 05:37:47;;;;;;;16.75;3.40;;;;;;;2.39;100.00;100587.78;4934457;29;20051;-86
2022/01/06 05:40:14;;;;;;;7.57;1.85;;;;;;;2.70;100.00;100603.09;4914847;29;20052;-86
2022/01/06 05:42:41;;;;;;;10.95;1.83;;;;;;;2.76;100.00;100601.34;4934740;29;20051;-86
2022/01/06 05:45:10;;;;;;;8.55;2.03;;;;;;;2.65;100.00;100592.78;4917400;29;20130;-84
2022/01/06 05:47:37;;;;;;;5.95;2.17;;;;;;;2.74;100.00;100569.44;4917837;29;20052;-86
2022/01/06 05:50:05;;;;;;;8.00;1.60;;;;;;;2.93;100.00;100564.97;4903090;29;20052;-86
2022/01/06 05:52:31;;;;;;;6.93;1.92;;;;;;;2.95;100.00;100576.16;4934107;29;20479;-86
2022/01/06 05:54:58;;;;;;;5.90;1.80;;;;;;;3.43;100.00;100578.28;4916784;29;20048;-86
2022/01/06 05:57:25;;;;;;;12.98;2.42;;;;;;;3.32;100.00;100568.03;4934686;29;20611;-85
2022/01/06 05:59:52;;;;;;;7.75;2.28;;;;;;;3.21;100.00;100544.88;4901692;29;20048;-86
2022/01/06 06:02:19;;;;;;;9.63;1.92;;;;;;;3.58;100.00;100543.63;4917929;29;20051;-86
2022/01/06 06:04:46;;;;;;;6.40;1.80;;;;;;;3.57;100.00;100516.84;4953567;29;20055;-86
2022/01/06 06:07:13;;;;;;;5.85;2.47;;;;;;;3.55;100.00;100522.94;4918416;29;20054;-86
2022/01/06 06:09:39;;;;;;;5.55;1.80;;;;;;;3.50;100.00;100511.78;4920693;29;20495;-86
2022/01/06 06:12:07;;;;;;;6.63;1.70;;;;;;;3.66;100.00;100491.72;4916589;29;20474;-86
2022/01/06 06:14:33;;;;;;;6.07;1.60;;;;;;;3.71;100.00;100487.34;4917438;29;20068;-86
2022/01/06 06:17:01;;;;;;;4.65;1.98;;;;;;;4.01;100.00;100495.56;4933491;29;20075;-86
2022/01/06 06:19:27;;;;;;;6.63;1.70;;;;;;;4.06;100.00;100484.25;4931731;29;20055;-86
2022/01/06 06:21:54;;;;;;;10.43;2.20;;;;;;;3.88;100.00;100476.75;4929643;29;20048;-86
2022/01/06 06:24:23;;;;;;;8.00;1.42;;;;;;;4.04;100.00;100470.47;4914516;29;20405;-86
2022/01/06 06:26:50;;;;;;;5.60;1.70;;;;;;;4.03;100.00;100432.47;4932403;29;20107;-86
2022/01/06 06:29:17;;;;;;;3.85;1.33;;;;;;;4.52;100.00;100475.75;4923985;29;20052;-86
2022/01/06 06:31:44;;;;;;;6.65;1.58;;;;;;;4.23;100.00;100459.81;4927346;29;20079;-85
2022/01/06 06:34:11;;;;;;;9.55;2.75;;;;;;;4.37;100.00;100453.53;4925260;29;20055;-86
2022/01/06 06:36:38;;;;;;;5.72;1.73;;;;;;;4.74;100.00;100462.41;4934693;29;20052;-87
2022/01/06 06:39:05;;;;;;;8.95;1.80;;;;;;;4.41;100.00;100446.56;4916903;29;20061;-86
2022/01/06 06:41:32;;;;;;;5.03;1.60;;;;;;;4.59;100.00;100441.97;4929605;29;20611;-86
2022/01/06 06:43:59;;;;;;;6.15;2.15;;;;;;;4.35;100.00;100434.53;4931939;29;20054;-86
2022/01/06 06:46:26;;;;;;;8.77;1.98;;;;;;;4.54;100.00;100432.50;4931253;29;20075;-86
2022/01/06 06:48:53;;;;;;;5.00;1.60;;;;;;;4.77;100.00;100449.41;4913650;29;20509;-87
2022/01/06 06:51:20;;;;;;;9.27;1.80;;;;;;;4.72;100.00;100448.63;4925862;29;20052;-86
2022/01/06 06:53:47;;;;;;;8.88;1.55;;;;;;;4.53;100.00;100427.34;4929196;29;20470;-86
2022/01/06 06:56:14;;;;;;;6.28;1.60;;;;;;;4.60;100.00;100431.53;4927759;29;20056;-88
2022/01/06 06:58:41;;;;;;;5.15;1.50;;;;;;;4.83;100.00;100415.53;4929262;29;20156;-85
2022/01/06 07:01:08;;;;;;;6.97;1.60;;;;;;;4.68;100.00;100427.06;4926255;29;20048;-86
2022/01/06 07:03:35;;;;;;;10.15;3.05;;;;;;;4.60;100.00;100418.56;4915484;29;20051;-86
2022/01/06 07:06:02;;;;;;;7.80;2.20;;;;;;;4.66;100.00;100394.28;4926275;29;20063;-86
2022/01/06 07:08:29;;;;;;;9.15;2.03;;;;;;;5.01;100.00;100401.38;4927868;29;20052;-86
2022/01/06 07:10:56;;;;;;;6.55;1.77;;;;;;;4.92;100.00;100385.97;4927404;29;20055;-87
2022/01/06 07:13:22;;;;;;;8.25;2.10;;;;;;;4.69;100.00;100383.84;4929674;29;20132;-87
2022/01/06 07:15:49;;;;;;;9.13;2.08;;;;;;;4.78;100.00;100393.19;4932722;29;20421;-87
2022/01/06 07:18:16;;;;;;;9.55;2.28;;;;;;;4.71;100.00;100397.63;4925902;29;20047;-87
2022/01/06 07:20:43;;;;;;;5.82;1.73;;;;;;;4.89;100.00;100381.72;4926644;29;20048;-88
2022/01/06 07:23:10;;;;;;;9.40;2.17;;;;;;;4.77;100.00;100374.19;4934753;29;20048;-88
2022/01/06 07:25:37;;;;;;;6.65;1.77;;;;;;;4.91;100.00;100381.69;4937940;29;20051;-87
2022/01/06 07:28:05;;;;;;;9.60;2.25;;;;;;;5.02;100.00;100358.13;4935030;29;20078;-88
2022/01/06 07:30:33;;;;;;;4.35;1.85;;;;;;;5.09;100.00;100352.75;4919953;29;20522;-87
2022/01/06 07:33:00;;;;;;;10.60;2.15;;;;;;;5.02;100.00;100355.53;4945339;29;20055;-87
2022/01/06 07:35:28;;;;;;;6.15;1.70;;;;;;;4.99;100.00;100351.22;4937360;29;20078;-86
2022/01/06 07:37:55;;;;;;;7.07;1.73;;;;;;;4.80;100.00;100316.19;4918960;29;20074;-87
2022/01/06 07:40:21;;;;;;;7.57;2.08;;;;;;;4.71;100.00;100362.19;4917540;29;20051;-87
2022/01/06 07:42:49;;;;;;;6.03;1.80;;;;;;;4.92;100.00;100353.13;4919744;29;20490;-86
2022/01/06 07:45:16;;;;;;;9.25;1.88;;;;;;;5.11;100.00;100342.34;4919927;29;20048;-88
2022/01/06 07:47:55;;;;;;;10.13;2.05;;;;;;;4.95;100.00;100321.06;4919572;29;20062;-87
2022/01/06 07:50:25;;;;;;;8.88;2.10;;;;;;;5.01;100.00;100335.63;4901725;29;20059;-88
2022/01/06 07:52:52;;;;;;;11.85;2.63;;;;;;;5.15;100.00;100328.41;4900798;29;20056;-88
2022/01/06 07:55:19;;;;;;;7.03;2.00;;;;;;;5.19;100.00;100321.41;4904350;29;20075;-88
2022/01/06 07:57:46;;;;;;;8.52;2.13;;;;;;;5.10;100.00;100293.94;4924279;29;20415;-89
2022/01/06 08:00:14;;;;;;;7.80;1.98;;;;;;;5.32;100.00;100307.28;4912173;29;20048;-88
2022/01/06 08:02:41;;;;;;;13.85;2.60;;;;;;;5.15;100.00;100307.66;4927544;29;20054;-88
2022/01/06 08:05:11;;;;;;;11.73;2.33;;;;;;;5.18;100.00;100307.59;4919666;29;20078;-88
2022/01/06 08:07:38;;;;;;;9.48;1.63;;;;;;;5.42;100.00;100303.59;4918919;29;20054;-91
2022/01/06 08:10:07;;;;;;;11.63;3.47;;;;;;;5.18;100.00;100289.41;4922742;29;20139;-88
2022/01/06 08:12:35;;;;;;;10.43;2.53;;;;;;;5.08;100.00;100278.41;4935714;29;20054;-88
2022/01/06 08:15:02;;;;;;;10.85;2.15;;;;;;;5.20;100.00;100281.59;4918677;29;20466;-88
2022/01/06 08:17:29;;;;;;;10.70;2.30;;;;;;;5.27;100.00;100268.44;4918750;29;20718;-87
2022/01/06 08:19:55;;;;;;;8.07;2.30;;;;;;;5.27;100.00;100276.22;4931801;29;20055;-89
2022/01/06 08:22:22;;;;;;;10.65;2.47;;;;;;;5.33;100.00;100246.69;4934737;29;20055;-87
2022/01/06 08:24:51;;;;;;;13.00;2.95;;;;;;;5.56;100.00;100259.13;4936040;29;20064;-86
2022/01/06 08:27:19;;;;;;;12.05;4.38;;;;;;;5.09;100.00;100245.50;4919273;29;20052;-87
2022/01/06 08:29:46;;;;;;;12.10;2.78;;;;;;;5.14;100.00;100235.88;4935214;29;20055;-87
2022/01/06 08:32:14;;;;;;;13.02;2.63;;;;;;;5.17;100.00;100228.03;4927036;29;20040;-86
2022/01/06 08:34:41;;;;;;;18.33;4.15;;;;;;;5.13;100.00;100208.22;4936252;29;20062;-88
2022/01/06 08:37:08;;;;;;;11.93;3.20;;;;;;;5.55;100.00;100218.44;4915166;29;20048;-87
2022/01/06 08:39:35;;;;;;;18.05;3.15;;;;;;;5.53;100.00;100211.59;4912547;29;20051;-87
2022/01/06 08:42:02;;;;;;;14.15;3.08;;;;;;;5.38;100.00;100197.25;4915365;29;20051;-88
2022/01/06 08:44:29;;;;;;;14.05;4.28;;;;;;;5.55;100.00;100199.44;4940894;29;20047;-88
2022/01/06 08:46:58;;;;;;;14.45;3.15;;;;;;;5.88;100.00;100184.72;4923491;29;20062;-91
2022/01/06 08:49:25;;;;;;;12.73;4.00;;;;;;;5.54;100.00;100106.81;4925846;29;20392;-89
2022/01/06 08:51:52;;;;;;;13.35;3.53;;;;;;;5.42;100.00;100131.34;4955307;29;20743;-90
2022/01/06 08:54:18;;;;;;;19.70;2.97;;;;;;;5.69;100.00;100145.38;4937795;29;20051;-88
2022/01/06 08:56:45;;;;;;;10.27;2.60;;;;;;;5.50;100.00;100100.84;4938656;29;20102;-86
2022/01/06 08:59:12;;;;;;;12.75;3.28;;;;;;;5.32;100.00;100134.19;4932770;29;20134;-87
2022/01/06 09:01:39;;;;;;;10.73;3.45;;;;;;;5.03;100.00;100139.25;4916850;29;20052;-87
2022/01/06 09:04:06;;;;;;;10.68;3.00;;;;;;;5.36;100.00;100140.16;4900145;29;20044;-85
2022/01/06 09:06:33;;;;;;;17.05;3.33;;;;;;;5.22;100.00;100122.34;4926610;29;20059;-88
2022/01/06 09:08:59;;;;;;;12.90;3.00;;;;;;;5.31;100.00;100116.06;4921931;29;20057;-87
2022/01/06 09:11:26;;;;;;;16.63;3.05;;;;;;;5.31;100.00;100105.69;4934144;29;20421;-88
2022/01/06 09:13:53;;;;;;;16.38;4.03;;;;;;;5.35;100.00;100094.34;4933576;29;20410;-88
2022/01/06 09:16:20;;;;;;;14.65;2.78;;;;;;;5.29;100.00;100121.31;4917712;29;20051;-88
2022/01/06 09:18:46;;;;;;;14.93;2.75;;;;;;;5.55;100.00;100103.34;4914435;29;20683;-88
2022/01/06 09:21:16;;;;;;;13.27;2.63;;;;;;;5.36;100.00;100116.78;4916839;29;20052;-88
2022/01/06 09:23:43;;;;;;;16.00;3.58;;;;;;;5.43;100.00;100087.19;4914550;29;20059;-89
2022/01/06 09:26:10;;;;;;;12.75;3.38;;;;;;;5.39;100.00;100080.38;4930006;29;20047;-88
2022/01/06 09:28:37;;;;;;;12.73;3.10;;;;;;;5.45;100.00;100071.56;4933261;29;20078;-89
2022/01/06 09:31:04;;;;;;;16.92;2.80;;;;;;;5.68;100.00;100066.59;4934836;29;20052;-89
2022/01/06 09:33:31;;;;;;;12.18;2.58;;;;;;;5.67;100.00;100062.28;4907971;29;20056;-89
2022/01/06 09:35:57;;;;;;;11.85;2.60;;;;;;;5.62;100.00;100056.38;4928749;29;20415;-88
2022/01/06 09:38:24;;;;;;;20.52;3.20;;;;;;;5.64;100.00;100053.75;4927621;29;20063;-89
2022/01/06 09:40:51;;;;;;;17.92;3.92;;;;;;;5.45;100.00;100043.88;4934614;29;20058;-89
2022/01/06 09:43:25;;;;;;;14.25;3.08;;;;;;;5.58;100.00;100052.16;4917755;29;20384;-89
2022/01/06 09:45:52;;;;;;;11.45;2.63;;;;;;;5.59;100.00;100040.03;4907019;29;20051;-89
2022/01/06 09:48:21;;;;;;;18.25;2.83;;;;;;;5.31;100.00;100007.03;4918452;29;20055;-89
2022/01/06 09:50:48;;;;;;;12.02;2.90;;;;;;;5.93;100.00;100016.50;4934670;29;20077;-89
2022/01/06 09:53:17;;;;;;;14.82;3.30;;;;;;;5.63;100.00;100016.53;4925650;29;20048;-89
2022/01/06 09:55:44;;;;;;;16.15;3.67;;;;;;;5.49;100.00;100008.28;4928959;29;20502;-89
2022/01/06 09:58:11;;;;;;;14.23;2.97;;;;;;;5.52;100.00;100028.94;4931967;29;20052;-89
2022/01/06 10:00:38;;;;;;;12.18;2.75;;;;;;;5.46;100.00;100005.78;4917032;29;20375;-89
2022/01/06 10:03:07;;;;;;;13.20;2.60;;;;;;;5.95;100.00;100013.88;4908822;29;20044;-89
2022/01/06 10:05:43;;;;;;;11.90;3.03;;;;;;;5.70;100.00;100004.19;4928430;29;20173;-89
2022/01/06 10:08:12;;;;;;;13.52;2.60;;;;;;;5.25;100.00;100015.00;4930703;29;20051;-89
2022/01/06 10:10:40;;;;;;;24.35;4.15;;;;;;;5.74;100.00;99995.44;4932405;29;20048;-89
2022/01/06 10:13:08;;;;;;;12.18;3.10;;;;;;;5.67;100.00;100001.72;4932010;29;20071;-89
2022/01/06 10:15:36;;;;;;;17.23;4.22;;;;;;;5.67;100.00;100004.31;4927927;29;20051;-88
2022/01/06 10:18:14;;;;;;;10.95;2.90;;;;;;;5.38;100.00;99976.56;4931221;29;20060;-89
2022/01/06 10:20:42;;;;;;;13.13;3.13;;;;;;;5.56;100.00;99978.66;4927865;29;20498;-89
2022/01/06 10:23:14;;;;;;;13.75;3.42;;;;;;;5.74;100.00;99989.38;4930871;29;20054;-90
2022/01/06 10:25:49;;;;;;;12.60;3.40;;;;;;;5.69;100.00;99947.97;4933418;29;20501;-90
2022/01/06 10:28:24;;;;;;;20.13;3.25;;;;;;;5.96;100.00;99971.44;4938474;29;20056;-90
2022/01/06 10:30:51;;;;;;;15.05;5.22;;;;;;;5.80;100.00;99948.47;4925884;29;20066;-89
2022/01/06 10:33:20;;;;;;;15.15;2.78;;;;;;;5.90;100.00;99982.84;4917555;29;20048;-90
2022/01/06 10:35:48;;;;;;;10.10;3.60;;;;;;;5.34;100.00;99970.63;4930034;29;20063;-89
2022/01/06 10:38:36;;;;;;;17.05;3.50;;;;;;;5.65;100.00;99962.78;4926860;29;20047;-90
2022/01/06 10:41:16;;;;;;;15.57;4.40;;;;;;;5.60;100.00;99953.44;4909918;29;20055;-88
2022/01/06 10:43:51;;;;;;;13.88;3.17;;;;;;;5.54;100.00;99946.66;4935172;29;20048;-90
2022/01/06 10:46:33;;;;;;;10.40;2.75;;;;;;;5.86;100.00;99935.31;4939469;29;20101;-90
2022/01/06 10:49:05;;;;;;;10.77;3.03;;;;;;;5.69;100.00;99938.44;4912052;29;20048;-90
2022/01/06 10:51:34;;;;;;;17.70;3.63;;;;;;;5.48;100.00;99939.06;4936352;29;20051;-89
2022/01/06 10:54:01;;;;;;;12.60;2.72;;;;;;;5.25;100.00;99908.59;4920742;29;20059;-90
2022/01/06 10:56:28;;;;;;;17.85;3.38;;;;;;;5.12;100.00;99895.13;4933328;29;20138;-89
2022/01/06 10:58:59;;;;;;;12.32;2.80;;;;;;;5.54;100.00;99883.50;4910884;29;20047;-89
2022/01/06 11:01:26;;;;;;;17.30;2.83;;;;;;;5.06;100.00;99885.75;4912310;29;20541;-89
2022/01/06 11:03:53;;;;;;;14.02;4.10;;;;;;;5.03;100.00;99893.63;4928615;29;20051;-89
2022/01/06 11:06:20;;;;;;;18.65;3.63;;;;;;;4.92;100.00;99888.75;4919127;29;20127;-89
2022/01/06 11:08:47;;;;;;;14.50;3.05;;;;;;;5.18;100.00;99881.13;4928604;29;20131;-89
2022/01/06 11:11:28;;;;;;;14.70;2.88;;;;;;;5.05;100.00;99872.84;4917269;29;20128;-89
2022/01/06 11:13:54;;;;;;;14.23;3.72;;;;;;;4.85;100.00;99876.84;4928256;29;20051;-89
2022/01/06 11:16:21;;;;;;;14.85;2.92;;;;;;;5.07;100.00;99838.16;4942020;29;20067;-89
2022/01/06 11:18:48;;;;;;;21.92;6.25;;;;;;;4.79;100.00;99864.03;4928871;29;20052;-89
2022/01/06 11:21:24;;;;;;;13.50;3.22;;;;;;;4.63;100.00;99848.03;4931966;29;20056;-88
2022/01/06 11:24:02;;;;;;;15.18;3.20;;;;;;;4.46;100.00;99826.91;4935654;29;20062;-87
2022/01/06 11:26:29;;;;;;;15.32;4.60;;;;;;;4.81;100.00;99838.91;4920002;29;20051;-86
2022/01/06 11:28:58;;;;;;;14.90;3.63;;;;;;;4.90;100.00;99835.19;4914555;29;20070;-87
2022/01/06 11:31:28;;;;;;;23.10;3.53;;;;;;;4.78;100.00;99823.44;4900001;29;20146;-87
2022/01/06 11:33:56;;;;;;;18.52;4.35;;;;;;;4.26;100.00;99789.41;4900925;29;20048;-86
2022/01/06 11:36:32;;;;;;;13.27;3.58;;;;;;;4.43;100.00;99801.94;4901111;29;20052;-86
2022/01/06 11:39:05;;;;;;;13.35;3.08;;;;;;;4.42;100.00;99804.56;4900046;29;20478;-87